logo
Rechercher aéroport 
image banner adimage banner adimage banner ad
image banner ad

YBUG - Bulga Downs Station Airport

Situé à Sandstone, Australia

ICAO - YBUG, IATA -

Données fournies par Airmate  

Information générale

Coordonnées: S28°29'22" E119°44'49"
Élévation : 1438 feet MSL.
Variation magnétique : 1° East
Voir autres Aéroports à (unassigned)

Données opérationnelles

Special qualification required
Heure actuelle UTC:
Heure actuelle locale:
Météo à : - ( 0 km )
METAR: K40B 282016Z AUTO 23007G21KT 130V290 23/12 A2952 RMK AO1 PK WND 20030/1927 SLP989 T02270125 55005
Voir NOTAMs / SUP AIP / TFR affectant cet aéroport [VIEW]
Fréquences de communication: [VIEW]

Pistes:

Identifiant RWYQFULongueur (ft)Largeur (ft)SurfaceLDA (ft)
35351°400564DIRT
17171°400564DIRT
26263°263657DIRT
0883°263657DIRT

Coordonnées de l'aéroport

Adresse: Sandstone Australia

Vue satellite de YBUG